sensor_id;sensor_type;location;lat;lon;timestamp;pressure;altitude;pressure_sealevel;temperature;humidity
71105;BME280;58760;48.716;8.962;2023-12-14T00:00:37;95692.28;;;4.47;100.00
71105;BME280;58760;48.716;8.962;2023-12-14T00:03:02;95700.69;;;4.50;100.00
71105;BME280;58760;48.716;8.962;2023-12-14T00:05:27;95696.97;;;4.61;100.00
71105;BME280;58760;48.716;8.962;2023-12-14T00:07:53;95703.72;;;4.63;100.00
71105;BME280;58760;48.716;8.962;2023-12-14T00:10:18;95706.84;;;4.67;100.00
71105;BME280;58760;48.716;8.962;2023-12-14T00:12:44;95712.63;;;4.70;100.00
71105;BME280;58760;48.716;8.962;2023-12-14T00:15:09;95719.50;;;4.71;100.00
71105;BME280;58760;48.716;8.962;2023-12-14T00:17:35;95719.66;;;4.70;100.00
71105;BME280;58760;48.716;8.962;2023-12-14T00:20:00;95719.66;;;4.70;100.00
71105;BME280;58760;48.716;8.962;2023-12-14T00:22:26;95727.88;;;4.75;100.00
71105;BME280;58760;48.716;8.962;2023-12-14T00:24:51;95714.94;;;4.73;100.00
71105;BME280;58760;48.716;8.962;2023-12-14T00:27:16;95724.59;;;4.73;100.00
71105;BME280;58760;48.716;8.962;2023-12-14T00:29:42;95728.72;;;4.75;100.00
71105;BME280;58760;48.716;8.962;2023-12-14T00:32:07;95732.84;;;4.78;100.00
71105;BME280;58760;48.716;8.962;2023-12-14T00:34:32;95736.97;;;4.81;100.00
71105;BME280;58760;48.716;8.962;2023-12-14T00:36:58;95740.56;;;4.80;100.00
71105;BME280;58760;48.716;8.962;2023-12-14T00:39:23;95737.94;;;4.80;100.00
71105;BME280;58760;48.716;8.962;2023-12-14T00:41:48;95735.63;;;4.77;100.00
71105;BME280;58760;48.716;8.962;2023-12-14T00:44:14;95747.47;;;4.81;100.00
71105;BME280;58760;48.716;8.962;2023-12-14T00:46:39;95749.91;;;4.74;100.00
71105;BME280;58760;48.716;8.962;2023-12-14T00:49:06;95751.09;;;4.80;100.00
71105;BME280;58760;48.716;8.962;2023-12-14T00:51:31;95745.38;;;4.84;100.00
71105;BME280;58760;48.716;8.962;2023-12-14T00:53:57;95751.63;;;4.91;100.00
71105;BME280;58760;48.716;8.962;2023-12-14T00:56:22;95755.75;;;4.94;100.00
71105;BME280;58760;48.716;8.962;2023-12-14T00:58:47;95759.19;;;4.94;100.00
71105;BME280;58760;48.716;8.962;2023-12-14T01:01:13;95759.16;;;4.86;100.00
71105;BME280;58760;48.716;8.962;2023-12-14T01:03:38;95768.03;;;4.85;100.00
71105;BME280;58760;48.716;8.962;2023-12-14T01:06:04;95766.19;;;4.78;100.00
71105;BME280;58760;48.716;8.962;2023-12-14T01:08:29;95781.34;;;4.84;100.00
71105;BME280;58760;48.716;8.962;2023-12-14T01:10:54;95780.25;;;4.68;100.00
71105;BME280;58760;48.716;8.962;2023-12-14T01:13:20;95777.78;;;4.41;100.00
71105;BME280;58760;48.716;8.962;2023-12-14T01:15:45;95778.22;;;4.37;100.00
71105;BME280;58760;48.716;8.962;2023-12-14T01:18:11;95784.88;;;4.49;100.00
71105;BME280;58760;48.716;8.962;2023-12-14T01:20:36;95793.44;;;4.51;100.00
71105;BME280;58760;48.716;8.962;2023-12-14T01:23:01;95800.34;;;4.52;100.00
71105;BME280;58760;48.716;8.962;2023-12-14T01:25:27;95801.84;;;4.54;100.00
71105;BME280;58760;48.716;8.962;2023-12-14T01:27:52;95809.41;;;4.57;100.00
71105;BME280;58760;48.716;8.962;2023-12-14T01:30:17;95813.88;;;4.65;100.00
71105;BME280;58760;48.716;8.962;2023-12-14T01:32:43;95806.38;;;4.70;100.00
71105;BME280;58760;48.716;8.962;2023-12-14T01:35:08;95820.03;;;4.73;100.00
71105;BME280;58760;48.716;8.962;2023-12-14T01:37:33;95818.91;;;4.76;100.00
71105;BME280;58760;48.716;8.962;2023-12-14T01:39:59;95821.69;;;4.74;100.00
71105;BME280;58760;48.716;8.962;2023-12-14T01:42:24;95825.28;;;4.73;100.00
71105;BME280;58760;48.716;8.962;2023-12-14T01:44:49;95831.47;;;4.64;100.00
71105;BME280;58760;48.716;8.962;2023-12-14T01:47:15;95834.09;;;4.64;100.00
71105;BME280;58760;48.716;8.962;2023-12-14T01:49:40;95844.97;;;4.69;100.00
71105;BME280;58760;48.716;8.962;2023-12-14T01:52:07;95851.66;;;4.64;100.00
71105;BME280;58760;48.716;8.962;2023-12-14T01:54:35;95856.09;;;4.63;100.00
71105;BME280;58760;48.716;8.962;2023-12-14T01:57:00;95856.59;;;4.67;100.00
71105;BME280;58760;48.716;8.962;2023-12-14T01:59:25;95852.41;;;4.74;100.00
71105;BME280;58760;48.716;8.962;2023-12-14T02:01:55;95862.06;;;4.73;100.00
71105;BME280;58760;48.716;8.962;2023-12-14T02:04:23;95861.56;;;4.70;100.00
71105;BME280;58760;48.716;8.962;2023-12-14T02:06:49;95868.00;;;4.75;100.00
71105;BME280;58760;48.716;8.962;2023-12-14T02:09:14;95864.09;;;4.80;100.00
71105;BME280;58760;48.716;8.962;2023-12-14T02:11:40;95867.53;;;4.80;100.00
71105;BME280;58760;48.716;8.962;2023-12-14T02:14:06;95873.47;;;4.82;100.00
71105;BME280;58760;48.716;8.962;2023-12-14T02:16:32;95873.31;;;4.84;100.00
71105;BME280;58760;48.716;8.962;2023-12-14T02:18:58;95872.50;;;4.83;100.00
71105;BME280;58760;48.716;8.962;2023-12-14T02:21:23;95873.84;;;4.87;100.00
71105;BME280;58760;48.716;8.962;2023-12-14T02:23:49;95876.59;;;4.86;100.00
71105;BME280;58760;48.716;8.962;2023-12-14T02:26:14;95884.03;;;4.90;100.00
71105;BME280;58760;48.716;8.962;2023-12-14T02:28:40;95876.47;;;4.87;100.00
71105;BME280;58760;48.716;8.962;2023-12-14T02:31:07;95884.81;;;4.83;100.00
71105;BME280;58760;48.716;8.962;2023-12-14T02:33:32;95876.59;;;4.60;100.00
71105;BME280;58760;48.716;8.962;2023-12-14T02:35:59;95887.31;;;4.49;100.00
71105;BME280;58760;48.716;8.962;2023-12-14T02:38:25;95883.41;;;4.70;100.00
71105;BME280;58760;48.716;8.962;2023-12-14T02:40:50;95885.09;;;4.80;100.00
71105;BME280;58760;48.716;8.962;2023-12-14T02:43:18;95889.22;;;4.82;100.00
71105;BME280;58760;48.716;8.962;2023-12-14T02:45:44;95892.53;;;4.84;100.00
71105;BME280;58760;48.716;8.962;2023-12-14T02:48:09;95900.25;;;4.86;100.00
71105;BME280;58760;48.716;8.962;2023-12-14T02:50:35;95905.38;;;4.87;100.00
71105;BME280;58760;48.716;8.962;2023-12-14T02:53:00;95906.03;;;4.89;100.00
71105;BME280;58760;48.716;8.962;2023-12-14T02:55:25;95904.75;;;4.93;100.00
71105;BME280;58760;48.716;8.962;2023-12-14T02:57:51;95904.91;;;4.92;100.00
71105;BME280;58760;48.716;8.962;2023-12-14T03:00:16;95910.47;;;4.89;100.00
71105;BME280;58760;48.716;8.962;2023-12-14T03:02:42;95911.97;;;4.91;100.00
71105;BME280;58760;48.716;8.962;2023-12-14T03:05:08;95908.22;;;4.94;100.00
71105;BME280;58760;48.716;8.962;2023-12-14T03:07:33;95912.47;;;4.95;100.00
71105;BME280;58760;48.716;8.962;2023-12-14T03:09:59;95915.09;;;4.95;100.00
71105;BME280;58760;48.716;8.962;2023-12-14T03:12:24;95918.75;;;4.94;100.00
71105;BME280;58760;48.716;8.962;2023-12-14T03:14:50;95922.03;;;4.96;100.00
71105;BME280;58760;48.716;8.962;2023-12-14T03:17:15;95929.28;;;5.02;100.00
71105;BME280;58760;48.716;8.962;2023-12-14T03:19:41;95931.63;;;5.05;100.00
71105;BME280;58760;48.716;8.962;2023-12-14T03:22:08;95938.97;;;5.01;100.00
71105;BME280;58760;48.716;8.962;2023-12-14T03:24:35;95937.66;;;4.97;100.00
71105;BME280;58760;48.716;8.962;2023-12-14T03:27:01;95942.41;;;4.94;100.00
71105;BME280;58760;48.716;8.962;2023-12-14T03:29:27;95941.91;;;4.98;100.00
71105;BME280;58760;48.716;8.962;2023-12-14T03:31:53;95943.19;;;4.94;100.00
71105;BME280;58760;48.716;8.962;2023-12-14T03:34:18;95944.25;;;5.01;100.00
71105;BME280;58760;48.716;8.962;2023-12-14T03:36:43;95953.66;;;5.04;100.00
71105;BME280;58760;48.716;8.962;2023-12-14T03:39:09;95954.44;;;5.04;100.00
71105;BME280;58760;48.716;8.962;2023-12-14T03:41:35;95957.75;;;5.06;100.00
71105;BME280;58760;48.716;8.962;2023-12-14T03:44:00;95954.13;;;5.07;100.00
71105;BME280;58760;48.716;8.962;2023-12-14T03:46:25;95962.75;;;4.39;100.00
71105;BME280;58760;48.716;8.962;2023-12-14T03:48:51;95975.66;;;4.50;100.00
71105;BME280;58760;48.716;8.962;2023-12-14T03:51:20;95977.41;;;4.77;100.00
71105;BME280;58760;48.716;8.962;2023-12-14T03:53:46;95976.41;;;4.95;100.00
71105;BME280;58760;48.716;8.962;2023-12-14T03:56:11;95990.28;;;5.05;100.00
71105;BME280;58760;48.716;8.962;2023-12-14T03:58:36;95986.06;;;5.12;100.00
71105;BME280;58760;48.716;8.962;2023-12-14T04:01:02;95992.81;;;5.15;100.00
71105;BME280;58760;48.716;8.962;2023-12-14T04:03:27;96002.50;;;5.14;100.00
71105;BME280;58760;48.716;8.962;2023-12-14T04:05:52;95999.44;;;5.19;100.00
71105;BME280;58760;48.716;8.962;2023-12-14T04:08:18;96014.25;;;5.20;100.00
71105;BME280;58760;48.716;8.962;2023-12-14T04:10:43;96017.47;;;5.14;100.00
71105;BME280;58760;48.716;8.962;2023-12-14T04:13:08;96022.59;;;5.15;100.00
71105;BME280;58760;48.716;8.962;2023-12-14T04:15:34;96019.66;;;5.18;100.00
71105;BME280;58760;48.716;8.962;2023-12-14T04:17:59;96031.13;;;5.17;100.00
71105;BME280;58760;48.716;8.962;2023-12-14T04:20:25;96030.25;;;5.26;100.00
71105;BME280;58760;48.716;8.962;2023-12-14T04:22:50;96031.75;;;5.29;100.00
71105;BME280;58760;48.716;8.962;2023-12-14T04:25:15;96031.22;;;5.25;100.00
71105;BME280;58760;48.716;8.962;2023-12-14T04:27:41;96035.84;;;5.32;100.00
71105;BME280;58760;48.716;8.962;2023-12-14T04:30:06;96039.75;;;5.27;100.00
71105;BME280;58760;48.716;8.962;2023-12-14T04:32:36;96043.66;;;5.23;100.00
71105;BME280;58760;48.716;8.962;2023-12-14T04:35:01;96044.66;;;5.22;100.00
71105;BME280;58760;48.716;8.962;2023-12-14T04:37:27;96056.69;;;5.25;100.00
71105;BME280;58760;48.716;8.962;2023-12-14T04:39:52;96054.88;;;5.25;100.00
71105;BME280;58760;48.716;8.962;2023-12-14T04:42:17;96054.88;;;5.25;100.00
71105;BME280;58760;48.716;8.962;2023-12-14T04:44:43;96061.81;;;5.26;100.00
71105;BME280;58760;48.716;8.962;2023-12-14T04:47:08;96071.03;;;5.31;100.00
71105;BME280;58760;48.716;8.962;2023-12-14T04:49:33;96075.47;;;5.12;100.00
71105;BME280;58760;48.716;8.962;2023-12-14T04:51:59;96073.44;;;4.89;100.00
71105;BME280;58760;48.716;8.962;2023-12-14T04:54:24;96073.97;;;4.92;100.00
71105;BME280;58760;48.716;8.962;2023-12-14T04:56:50;96086.97;;;5.11;100.00
71105;BME280;58760;48.716;8.962;2023-12-14T04:59:15;96086.88;;;5.21;100.00
71105;BME280;58760;48.716;8.962;2023-12-14T05:01:40;96090.03;;;5.24;100.00
71105;BME280;58760;48.716;8.962;2023-12-14T05:04:06;96088.47;;;5.32;100.00
71105;BME280;58760;48.716;8.962;2023-12-14T05:06:31;96097.25;;;5.40;100.00
71105;BME280;58760;48.716;8.962;2023-12-14T05:08:59;96098.06;;;5.41;100.00
71105;BME280;58760;48.716;8.962;2023-12-14T05:11:26;96104.03;;;5.43;100.00
71105;BME280;58760;48.716;8.962;2023-12-14T05:13:52;96105.75;;;5.52;100.00
71105;BME280;58760;48.716;8.962;2023-12-14T05:16:17;96104.09;;;5.51;100.00
71105;BME280;58760;48.716;8.962;2023-12-14T05:18:42;96109.03;;;5.54;100.00
71105;BME280;58760;48.716;8.962;2023-12-14T05:21:08;96114.31;;;5.54;100.00
71105;BME280;58760;48.716;8.962;2023-12-14T05:23:33;96123.03;;;5.54;100.00
71105;BME280;58760;48.716;8.962;2023-12-14T05:25:59;96129.44;;;5.52;100.00
71105;BME280;58760;48.716;8.962;2023-12-14T05:28:24;96126.88;;;5.42;100.00
71105;BME280;58760;48.716;8.962;2023-12-14T05:30:49;96138.22;;;5.43;100.00
71105;BME280;58760;48.716;8.962;2023-12-14T05:33:15;96132.13;;;5.42;100.00
71105;BME280;58760;48.716;8.962;2023-12-14T05:35:40;96136.47;;;5.34;100.00
71105;BME280;58760;48.716;8.962;2023-12-14T05:38:05;96147.53;;;5.37;100.00
71105;BME280;58760;48.716;8.962;2023-12-14T05:40:31;96152.66;;;5.39;100.00
71105;BME280;58760;48.716;8.962;2023-12-14T05:42:57;96157.75;;;5.40;100.00
71105;BME280;58760;48.716;8.962;2023-12-14T05:45:22;96161.50;;;5.38;100.00
71105;BME280;58760;48.716;8.962;2023-12-14T05:47:48;96168.97;;;5.42;100.00
71105;BME280;58760;48.716;8.962;2023-12-14T05:50:13;96171.31;;;5.45;100.00
71105;BME280;58760;48.716;8.962;2023-12-14T05:52:39;96180.69;;;5.48;100.00
71105;BME280;58760;48.716;8.962;2023-12-14T05:55:10;96179.94;;;5.55;100.00
71105;BME280;58760;48.716;8.962;2023-12-14T05:57:36;96183.53;;;5.54;100.00
71105;BME280;58760;48.716;8.962;2023-12-14T06:00:02;96184.91;;;5.58;100.00
71105;BME280;58760;48.716;8.962;2023-12-14T06:02:29;96187.16;;;5.53;100.00
71105;BME280;58760;48.716;8.962;2023-12-14T06:04:55;96191.00;;;5.59;100.00
71105;BME280;58760;48.716;8.962;2023-12-14T06:07:23;96196.09;;;5.60;100.00
71105;BME280;58760;48.716;8.962;2023-12-14T06:09:48;96199.56;;;5.61;100.00
71105;BME280;58760;48.716;8.962;2023-12-14T06:12:13;96207.69;;;5.67;100.00
71105;BME280;58760;48.716;8.962;2023-12-14T06:14:39;96219.66;;;5.62;100.00
71105;BME280;58760;48.716;8.962;2023-12-14T06:17:04;96214.69;;;5.59;100.00
71105;BME280;58760;48.716;8.962;2023-12-14T06:19:29;96224.91;;;5.62;100.00
71105;BME280;58760;48.716;8.962;2023-12-14T06:21:55;96221.38;;;5.71;100.00
71105;BME280;58760;48.716;8.962;2023-12-14T06:24:20;96226.94;;;5.68;100.00
71105;BME280;58760;48.716;8.962;2023-12-14T06:26:47;96230.94;;;5.72;100.00
71105;BME280;58760;48.716;8.962;2023-12-14T06:29:13;96244.59;;;5.75;100.00
71105;BME280;58760;48.716;8.962;2023-12-14T06:31:38;96240.34;;;5.74;100.00
71105;BME280;58760;48.716;8.962;2023-12-14T06:34:05;96243.31;;;5.79;100.00
71105;BME280;58760;48.716;8.962;2023-12-14T06:36:30;96254.00;;;5.60;100.00
71105;BME280;58760;48.716;8.962;2023-12-14T06:38:57;96250.84;;;5.39;100.00
71105;BME280;58760;48.716;8.962;2023-12-14T06:41:23;96257.72;;;5.22;100.00
71105;BME280;58760;48.716;8.962;2023-12-14T06:43:49;96252.88;;;5.18;100.00
71105;BME280;58760;48.716;8.962;2023-12-14T06:46:15;96265.47;;;5.14;100.00
71105;BME280;58760;48.716;8.962;2023-12-14T06:48:41;96269.25;;;5.12;100.00
71105;BME280;58760;48.716;8.962;2023-12-14T06:51:06;96271.56;;;5.42;100.00
71105;BME280;58760;48.716;8.962;2023-12-14T06:53:32;96270.91;;;5.58;100.00
71105;BME280;58760;48.716;8.962;2023-12-14T06:55:57;96287.06;;;5.63;100.00
71105;BME280;58760;48.716;8.962;2023-12-14T06:58:22;96287.22;;;5.16;100.00
71105;BME280;58760;48.716;8.962;2023-12-14T07:00:48;96293.16;;;5.18;100.00
71105;BME280;58760;48.716;8.962;2023-12-14T07:03:13;96293.97;;;5.46;100.00
71105;BME280;58760;48.716;8.962;2023-12-14T07:05:39;96308.44;;;5.60;100.00
71105;BME280;58760;48.716;8.962;2023-12-14T07:08:05;96318.78;;;5.71;100.00
71105;BME280;58760;48.716;8.962;2023-12-14T07:10:30;96324.94;;;5.79;100.00
71105;BME280;58760;48.716;8.962;2023-12-14T07:12:56;96326.91;;;5.77;100.00
71105;BME280;58760;48.716;8.962;2023-12-14T07:15:21;96333.25;;;5.85;100.00
71105;BME280;58760;48.716;8.962;2023-12-14T07:17:46;96343.63;;;5.86;100.00
71105;BME280;58760;48.716;8.962;2023-12-14T07:20:12;96347.63;;;5.90;100.00
71105;BME280;58760;48.716;8.962;2023-12-14T07:22:37;96357.34;;;5.90;100.00
71105;BME280;58760;48.716;8.962;2023-12-14T07:25:03;96364.56;;;5.88;100.00
71105;BME280;58760;48.716;8.962;2023-12-14T07:27:29;96356.78;;;5.32;100.00
71105;BME280;58760;48.716;8.962;2023-12-14T07:29:55;96368.84;;;5.24;100.00
71105;BME280;58760;48.716;8.962;2023-12-14T07:32:20;96367.50;;;5.48;100.00
71105;BME280;58760;48.716;8.962;2023-12-14T07:34:46;96370.25;;;5.56;100.00
71105;BME280;58760;48.716;8.962;2023-12-14T07:37:12;96377.41;;;5.63;100.00
71105;BME280;58760;48.716;8.962;2023-12-14T07:39:37;96373.41;;;5.59;100.00
71105;BME280;58760;48.716;8.962;2023-12-14T07:42:03;96377.16;;;5.57;100.00
71105;BME280;58760;48.716;8.962;2023-12-14T07:44:28;96374.78;;;5.63;100.00
71105;BME280;58760;48.716;8.962;2023-12-14T07:46:56;96386.53;;;5.69;100.00
71105;BME280;58760;48.716;8.962;2023-12-14T07:49:21;96384.88;;;5.68;100.00
71105;BME280;58760;48.716;8.962;2023-12-14T07:51:49;96388.38;;;5.59;100.00
71105;BME280;58760;48.716;8.962;2023-12-14T07:54:14;96387.78;;;5.38;100.00
71105;BME280;58760;48.716;8.962;2023-12-14T07:56:40;96401.41;;;5.51;100.00
71105;BME280;58760;48.716;8.962;2023-12-14T07:59:06;96404.81;;;5.70;100.00
71105;BME280;58760;48.716;8.962;2023-12-14T08:01:33;96407.38;;;5.80;100.00
71105;BME280;58760;48.716;8.962;2023-12-14T08:03:59;96416.66;;;5.84;100.00
71105;BME280;58760;48.716;8.962;2023-12-14T08:06:24;96422.88;;;5.93;100.00
71105;BME280;58760;48.716;8.962;2023-12-14T08:08:50;96432.28;;;5.95;100.00
71105;BME280;58760;48.716;8.962;2023-12-14T08:11:15;96430.19;;;5.99;100.00
71105;BME280;58760;48.716;8.962;2023-12-14T08:13:40;96439.91;;;5.98;100.00
71105;BME280;58760;48.716;8.962;2023-12-14T08:16:07;96446.81;;;5.99;100.00
71105;BME280;58760;48.716;8.962;2023-12-14T08:18:33;96453.16;;;6.06;100.00
71105;BME280;58760;48.716;8.962;2023-12-14T08:20:58;96460.63;;;6.11;100.00
71105;BME280;58760;48.716;8.962;2023-12-14T08:23:24;96459.94;;;5.72;100.00
71105;BME280;58760;48.716;8.962;2023-12-14T08:25:52;96467.44;;;5.67;100.00
71105;BME280;58760;48.716;8.962;2023-12-14T08:28:18;96463.38;;;5.92;100.00
71105;BME280;58760;48.716;8.962;2023-12-14T08:30:43;96471.41;;;6.17;100.00
71105;BME280;58760;48.716;8.962;2023-12-14T08:33:09;96471.34;;;6.27;100.00
71105;BME280;58760;48.716;8.962;2023-12-14T08:35:34;96473.91;;;6.37;100.00
71105;BME280;58760;48.716;8.962;2023-12-14T08:37:59;96482.19;;;6.42;100.00
71105;BME280;58760;48.716;8.962;2023-12-14T08:40:25;96494.84;;;6.38;100.00
71105;BME280;58760;48.716;8.962;2023-12-14T08:42:50;96500.88;;;6.30;100.00
71105;BME280;58760;48.716;8.962;2023-12-14T08:45:16;96505.84;;;6.34;100.00
71105;BME280;58760;48.716;8.962;2023-12-14T08:47:41;96515.63;;;6.41;100.00
71105;BME280;58760;48.716;8.962;2023-12-14T08:50:08;96523.34;;;6.70;100.00
71105;BME280;58760;48.716;8.962;2023-12-14T08:52:33;96534.81;;;6.78;100.00
71105;BME280;58760;48.716;8.962;2023-12-14T08:54:59;96541.78;;;6.79;100.00
71105;BME280;58760;48.716;8.962;2023-12-14T08:57:24;96547.47;;;6.75;100.00
71105;BME280;58760;48.716;8.962;2023-12-14T08:59:49;96547.19;;;6.78;100.00
71105;BME280;58760;48.716;8.962;2023-12-14T09:02:15;96551.09;;;6.74;100.00
71105;BME280;58760;48.716;8.962;2023-12-14T09:04:40;96560.38;;;6.78;100.00
71105;BME280;58760;48.716;8.962;2023-12-14T09:07:06;96564.19;;;6.66;100.00
71105;BME280;58760;48.716;8.962;2023-12-14T09:09:31;96570.69;;;6.71;100.00
71105;BME280;58760;48.716;8.962;2023-12-14T09:11:57;96581.47;;;6.78;100.00
71105;BME280;58760;48.716;8.962;2023-12-14T09:14:23;96583.25;;;6.77;100.00
71105;BME280;58760;48.716;8.962;2023-12-14T09:16:48;96582.59;;;6.75;100.00
71105;BME280;58760;48.716;8.962;2023-12-14T09:19:14;96591.72;;;6.81;100.00
71105;BME280;58760;48.716;8.962;2023-12-14T09:21:39;96603.53;;;6.77;100.00
71105;BME280;58760;48.716;8.962;2023-12-14T09:24:04;96604.22;;;6.79;100.00
71105;BME280;58760;48.716;8.962;2023-12-14T09:26:30;96605.28;;;6.86;100.00
71105;BME280;58760;48.716;8.962;2023-12-14T09:28:56;96600.16;;;6.84;100.00
71105;BME280;58760;48.716;8.962;2023-12-14T09:31:21;96614.97;;;6.95;100.00
71105;BME280;58760;48.716;8.962;2023-12-14T09:33:46;96610.22;;;6.99;100.00
71105;BME280;58760;48.716;8.962;2023-12-14T09:36:12;96621.50;;;7.09;100.00
71105;BME280;58760;48.716;8.962;2023-12-14T09:38:37;96625.66;;;6.94;100.00
71105;BME280;58760;48.716;8.962;2023-12-14T09:41:03;96624.44;;;7.06;100.00
71105;BME280;58760;48.716;8.962;2023-12-14T09:43:29;96631.56;;;7.05;100.00
71105;BME280;58760;48.716;8.962;2023-12-14T09:45:55;96639.66;;;7.21;100.00
71105;BME280;58760;48.716;8.962;2023-12-14T09:48:22;96635.25;;;7.30;100.00
71105;BME280;58760;48.716;8.962;2023-12-14T09:50:48;96648.81;;;7.17;100.00
71105;BME280;58760;48.716;8.962;2023-12-14T09:53:14;96649.06;;;7.42;100.00
71105;BME280;58760;48.716;8.962;2023-12-14T09:55:39;96643.75;;;7.06;100.00
71105;BME280;58760;48.716;8.962;2023-12-14T09:58:05;96649.50;;;7.19;100.00
71105;BME280;58760;48.716;8.962;2023-12-14T10:00:36;96656.09;;;7.33;100.00
71105;BME280;58760;48.716;8.962;2023-12-14T10:03:17;96663.41;;;7.21;100.00
71105;BME280;58760;48.716;8.962;2023-12-14T10:05:43;96664.25;;;7.12;100.00
71105;BME280;58760;48.716;8.962;2023-12-14T10:08:08;96668.59;;;7.31;100.00
71105;BME280;58760;48.716;8.962;2023-12-14T10:10:34;96672.50;;;7.45;100.00
71105;BME280;58760;48.716;8.962;2023-12-14T10:12:59;96678.19;;;7.50;100.00
71105;BME280;58760;48.716;8.962;2023-12-14T10:15:26;96680.06;;;7.40;100.00
71105;BME280;58760;48.716;8.962;2023-12-14T10:17:52;96693.06;;;7.51;100.00
71105;BME280;58760;48.716;8.962;2023-12-14T10:20:23;96692.00;;;7.44;100.00
71105;BME280;58760;48.716;8.962;2023-12-14T10:22:52;96691.06;;;7.35;100.00
71105;BME280;58760;48.716;8.962;2023-12-14T10:25:18;96692.59;;;7.55;100.00
71105;BME280;58760;48.716;8.962;2023-12-14T10:27:46;96699.53;;;7.56;100.00
71105;BME280;58760;48.716;8.962;2023-12-14T10:30:13;96698.25;;;7.43;100.00
71105;BME280;58760;48.716;8.962;2023-12-14T10:32:38;96705.41;;;7.32;100.00
71105;BME280;58760;48.716;8.962;2023-12-14T10:35:06;96703.53;;;7.43;100.00
71105;BME280;58760;48.716;8.962;2023-12-14T10:37:32;96698.25;;;7.43;100.00
71105;BME280;58760;48.716;8.962;2023-12-14T10:40:02;96708.13;;;7.58;100.00
71105;BME280;58760;48.716;8.962;2023-12-14T10:42:29;96714.19;;;7.51;100.00
71105;BME280;58760;48.716;8.962;2023-12-14T10:44:54;96718.41;;;7.61;100.00
71105;BME280;58760;48.716;8.962;2023-12-14T10:47:20;96724.06;;;7.66;100.00
71105;BME280;58760;48.716;8.962;2023-12-14T10:49:50;96723.69;;;7.61;100.00
71105;BME280;58760;48.716;8.962;2023-12-14T10:52:16;96723.97;;;7.58;100.00
71105;BME280;58760;48.716;8.962;2023-12-14T10:54:43;96725.59;;;7.69;100.00
71105;BME280;58760;48.716;8.962;2023-12-14T10:57:09;96726.78;;;7.74;100.00
71105;BME280;58760;48.716;8.962;2023-12-14T10:59:34;96734.31;;;7.87;100.00
71105;BME280;58760;48.716;8.962;2023-12-14T11:02:06;96727.09;;;7.89;100.00
71105;BME280;58760;48.716;8.962;2023-12-14T11:04:57;96737.81;;;8.05;100.00
71105;BME280;58760;48.716;8.962;2023-12-14T11:07:46;96745.44;;;8.08;100.00
71105;BME280;58760;48.716;8.962;2023-12-14T11:10:12;96747.25;;;8.08;100.00
71105;BME280;58760;48.716;8.962;2023-12-14T11:12:38;96743.19;;;7.96;100.00
71105;BME280;58760;48.716;8.962;2023-12-14T11:15:17;96747.94;;;7.92;100.00
71105;BME280;58760;48.716;8.962;2023-12-14T11:17:42;96761.97;;;7.93;100.00
71105;BME280;58760;48.716;8.962;2023-12-14T11:20:23;96753.28;;;7.82;100.00
71105;BME280;58760;48.716;8.962;2023-12-14T11:22:49;96764.53;;;7.67;100.00
71105;BME280;58760;48.716;8.962;2023-12-14T11:25:14;96750.69;;;7.55;100.00
71105;BME280;58760;48.716;8.962;2023-12-14T11:27:43;96763.22;;;7.71;100.00
71105;BME280;58760;48.716;8.962;2023-12-14T11:30:11;96769.41;;;7.62;100.00
71105;BME280;58760;48.716;8.962;2023-12-14T11:32:36;96775.53;;;7.62;100.00
71105;BME280;58760;48.716;8.962;2023-12-14T11:35:02;96790.69;;;7.60;100.00
71105;BME280;58760;48.716;8.962;2023-12-14T11:37:27;96780.47;;;7.20;100.00
71105;BME280;58760;48.716;8.962;2023-12-14T11:39:53;96789.91;;;6.86;100.00
71105;BME280;58760;48.716;8.962;2023-12-14T11:42:19;96790.75;;;6.77;100.00
71105;BME280;58760;48.716;8.962;2023-12-14T11:44:45;96796.91;;;6.68;100.00
71105;BME280;58760;48.716;8.962;2023-12-14T11:47:10;96804.13;;;6.66;100.00
71105;BME280;58760;48.716;8.962;2023-12-14T11:49:36;96804.41;;;6.63;100.00
71105;BME280;58760;48.716;8.962;2023-12-14T11:52:02;96807.69;;;6.84;100.00
71105;BME280;58760;48.716;8.962;2023-12-14T11:54:29;96812.53;;;7.25;100.00
71105;BME280;58760;48.716;8.962;2023-12-14T11:56:54;96813.63;;;7.60;100.00
71105;BME280;58760;48.716;8.962;2023-12-14T11:59:20;96816.16;;;7.52;100.00
71105;BME280;58760;48.716;8.962;2023-12-14T12:02:00;96817.66;;;7.64;100.00
71105;BME280;58760;48.716;8.962;2023-12-14T12:04:27;96821.00;;;7.83;100.00
71105;BME280;58760;48.716;8.962;2023-12-14T12:07:03;96829.00;;;7.64;100.00
71105;BME280;58760;48.716;8.962;2023-12-14T12:09:36;96829.06;;;7.55;100.00
71105;BME280;58760;48.716;8.962;2023-12-14T12:12:05;96832.47;;;7.47;100.00
71105;BME280;58760;48.716;8.962;2023-12-14T12:14:30;96838.66;;;7.56;100.00
71105;BME280;58760;48.716;8.962;2023-12-14T12:16:56;96845.91;;;7.54;100.00
71105;BME280;58760;48.716;8.962;2023-12-14T12:19:21;96848.00;;;7.50;100.00
71105;BME280;58760;48.716;8.962;2023-12-14T12:21:46;96847.72;;;7.53;100.00
71105;BME280;58760;48.716;8.962;2023-12-14T12:24:12;96851.16;;;7.63;100.00
71105;BME280;58760;48.716;8.962;2023-12-14T12:26:37;96870.13;;;7.76;100.00
71105;BME280;58760;48.716;8.962;2023-12-14T12:29:02;96872.53;;;7.87;100.00
71105;BME280;58760;48.716;8.962;2023-12-14T12:31:31;96863.59;;;7.98;100.00
71105;BME280;58760;48.716;8.962;2023-12-14T12:33:56;96873.19;;;8.17;100.00
71105;BME280;58760;48.716;8.962;2023-12-14T12:36:21;96872.66;;;8.13;100.00
71105;BME280;58760;48.716;8.962;2023-12-14T12:38:47;96880.06;;;8.10;100.00
71105;BME280;58760;48.716;8.962;2023-12-14T12:41:13;96881.00;;;8.18;100.00
71105;BME280;58760;48.716;8.962;2023-12-14T12:43:38;96880.00;;;8.19;100.00
71105;BME280;58760;48.716;8.962;2023-12-14T12:46:04;96883.34;;;8.21;100.00
71105;BME280;58760;48.716;8.962;2023-12-14T12:48:29;96890.34;;;8.13;100.00
71105;BME280;58760;48.716;8.962;2023-12-14T12:50:55;96890.88;;;8.16;100.00
71105;BME280;58760;48.716;8.962;2023-12-14T12:53:20;96891.16;;;8.13;100.00